Terminal Aerodrome Forecast
Issued by NWS Atlanta, GA

Home | Current Version | Previous Version | Text Only | Print | Product List | Glossary On
Versions: 1 2 3 4 5 6 7 8 9 10 11 12 13 14 15 16 17
951
FTUS42 KFFC 291727
TAFMCN
TAF
KMCN 291727Z 2918/3018 27008KT P6SM SCT040
      TEMPO 2921/3001 VRB10G18KT 4SM -TSRA BR BKN025CB
     FM300100 25006KT P6SM VCTS SCT050CB BKN120
     FM300400 26004KT P6SM BKN050
     FM301200 27006KT P6SM BKN025 PROB30 3017/3018 4SM -TSRA
      BKN020CB=

USA.gov is the U.S. government's official web portal to all federal, state and local government web resources and services.